Time;durP1;ratioP1;P1;durP2;ratioP2;P2;SDS_P1;SDS_P2;PMS_P1;PMS_P2;Temp;Humidity;BMP_temperature;BMP_pressure;BME280_temperature;BME280_humidity;BME280_pressure;Samples;Min_cycle;Max_cycle;Signal;HPM_P1;HPM_P2
2022/11/08 00:01:30;;;;;;;;;;;;;;;14.36;50.49;99316.47;4879415;29;20022;-77
2022/11/08 00:03:56;;;;;;;;;;;;;;;14.36;50.70;99313.84;4881159;29;19932;-77
2022/11/08 00:14:32;;;;;;;;;;;;;;;14.36;50.71;99322.56;4889350;29;19971;-77
2022/11/08 00:16:58;;;;;;;;;;;;;;;14.37;50.53;99318.97;4913396;29;19920;-77
2022/11/08 00:19:23;;;;;;;;;;;;;;;14.35;50.69;99320.88;4913632;29;19926;-77
2022/11/08 00:21:48;;;;;;;;;;;;;;;14.34;50.61;99319.22;4913579;29;20375;-77
2022/11/08 00:24:14;;;;;;;;;;;;;;;14.34;50.73;99316.59;4897739;29;19926;-78
2022/11/08 00:26:39;;;;;;;;;;;;;;;14.34;50.86;99324.47;4913847;29;20016;-77
2022/11/08 00:29:04;;;;;;;;;;;;;;;14.33;50.98;99316.72;4972054;28;19918;-77
2022/11/08 00:31:29;;;;;;;;;;;;;;;14.34;50.87;99313.97;4974649;28;20274;-77
2022/11/08 00:33:55;;;;;;;;;;;;;;;14.33;50.96;99307.06;4974617;28;19925;-77
2022/11/08 00:36:20;;;;;;;;;;;;;;;14.33;50.81;99307.06;4974220;28;19941;-76
2022/11/08 00:38:45;;;;;;;;;;;;;;;14.34;50.83;99303.44;4971090;28;20021;-76
2022/11/08 00:41:11;;;;;;;;;;;;;;;14.34;50.97;99302.63;4971435;28;19922;-76
2022/11/08 00:43:36;;;;;;;;;;;;;;;14.33;50.96;99300.94;4971030;28;19925;-77
2022/11/08 00:46:01;;;;;;;;;;;;;;;14.33;51.00;99299.19;4971341;28;19925;-77
2022/11/08 00:48:27;;;;;;;;;;;;;;;14.33;51.13;99299.19;4972166;28;19918;-78
2022/11/08 00:50:52;;;;;;;;;;;;;;;14.32;51.12;99291.44;4971177;28;20428;-78
2022/11/08 00:53:17;;;;;;;;;;;;;;;14.29;51.09;99293.38;4971406;28;19918;-78
2022/11/08 00:55:42;;;;;;;;;;;;;;;14.29;51.09;99288.09;4971101;28;20018;-78
2022/11/08 00:58:08;;;;;;;;;;;;;;;14.29;51.10;99290.72;4970896;28;19925;-78
2022/11/08 01:00:33;;;;;;;;;;;;;;;14.29;51.03;99282.00;4954749;29;19965;-78
2022/11/08 01:05:42;;;;;;;;;;;;;;;14.30;50.97;99286.31;4968374;28;19925;-78
2022/11/08 01:08:08;;;;;;;;;;;;;;;14.28;50.92;99275.94;4970767;28;19918;-78
2022/11/08 01:10:34;;;;;;;;;;;;;;;14.28;51.03;99282.97;4971244;28;19934;-79
2022/11/08 01:12:59;;;;;;;;;;;;;;;14.25;51.16;99276.19;4970413;28;19926;-79
2022/11/08 01:15:24;;;;;;;;;;;;;;;14.25;51.15;99273.56;4970682;28;20449;-79
2022/11/08 01:17:50;;;;;;;;;;;;;;;14.24;51.14;99277.13;4970784;28;19926;-78
2022/11/08 01:20:15;;;;;;;;;;;;;;;14.24;51.15;99271.88;4970600;28;19918;-78
2022/11/08 01:22:40;;;;;;;;;;;;;;;14.22;51.07;99279.06;4970921;28;19968;-79
2022/11/08 01:25:06;;;;;;;;;;;;;;;14.22;51.23;99280.88;4954447;29;19974;-79
2022/11/08 01:27:31;;;;;;;;;;;;;;;14.21;51.09;99280.00;4971179;28;19969;-77
2022/11/08 01:29:56;;;;;;;;;;;;;;;14.20;51.24;99269.63;4970719;28;20373;-77
2022/11/08 01:32:22;;;;;;;;;;;;;;;14.19;51.30;99273.25;4955582;29;20394;-77
2022/11/08 01:34:47;;;;;;;;;;;;;;;14.15;51.37;99264.75;4970135;28;19919;-78
2022/11/08 01:37:12;;;;;;;;;;;;;;;14.14;51.18;99271.00;4973454;28;19922;-78
2022/11/08 01:39:37;;;;;;;;;;;;;;;14.11;51.25;99266.81;4987113;28;20313;-78
2022/11/08 01:42:03;;;;;;;;;;;;;;;14.11;51.42;99266.00;4976637;28;19933;-78
2022/11/08 01:44:28;;;;;;;;;;;;;;;14.11;51.31;99266.00;4976535;28;19961;-77
2022/11/08 01:46:53;;;;;;;;;;;;;;;14.09;51.38;99263.50;4993861;28;19990;-77
2022/11/08 01:49:19;;;;;;;;;;;;;;;14.08;51.49;99264.44;4992731;28;19918;-77
2022/11/08 01:51:55;;;;;;;;;;;;;;;14.07;51.30;99268.03;4992723;28;19918;-78
2022/11/08 01:54:23;;;;;;;;;;;;;;;14.06;51.44;99266.38;4993512;28;19928;-78
2022/11/08 01:56:48;;;;;;;;;;;;;;;14.05;51.40;99266.50;4992623;28;20479;-78
2022/11/08 01:59:13;;;;;;;;;;;;;;;14.05;51.44;99263.88;4992737;28;20024;-78
2022/11/08 02:01:40;;;;;;;;;;;;;;;14.05;51.50;99266.50;4992183;28;19926;-78
2022/11/08 02:04:05;;;;;;;;;;;;;;;14.05;51.46;99263.88;4976266;28;20286;-78
2022/11/08 02:06:31;;;;;;;;;;;;;;;14.03;51.31;99260.53;4992273;28;19924;-77
2022/11/08 02:08:58;;;;;;;;;;;;;;;14.03;51.56;99261.38;4992784;28;19922;-78
2022/11/08 02:11:23;;;;;;;;;;;;;;;14.03;51.61;99258.75;4976503;28;19922;-78
2022/11/08 02:13:48;;;;;;;;;;;;;;;14.04;51.51;99259.56;4993423;28;20028;-78
2022/11/08 02:16:14;;;;;;;;;;;;;;;14.04;51.30;99259.56;4993499;28;19918;-79
2022/11/08 02:18:40;;;;;;;;;;;;;;;14.03;51.53;99261.38;4975548;28;19980;-78
2022/11/08 02:21:11;;;;;;;;;;;;;;;14.05;51.51;99261.25;4992633;28;19972;-78
2022/11/08 02:23:56;;;;;;;;;;;;;;;14.05;51.50;99259.44;4993791;28;19918;-78
2022/11/08 02:26:21;;;;;;;;;;;;;;;14.05;51.43;99262.06;4976115;28;20305;-78
2022/11/08 02:28:47;;;;;;;;;;;;;;;14.06;51.66;99261.13;4976204;28;19918;-78
2022/11/08 02:31:13;;;;;;;;;;;;;;;14.04;51.58;99256.94;4992312;28;19918;-78
2022/11/08 02:33:38;;;;;;;;;;;;;;;14.05;51.40;99258.63;4993231;28;19918;-78
2022/11/08 02:36:04;;;;;;;;;;;;;;;14.03;51.47;99263.19;4993196;28;19917;-79
2022/11/08 02:38:29;;;;;;;;;;;;;;;14.03;51.69;99250.88;4975345;28;19922;-81
2022/11/08 02:40:55;;;;;;;;;;;;;;;14.04;51.59;99251.69;4992240;28;19941;-78
2022/11/08 02:43:20;;;;;;;;;;;;;;;14.06;51.57;99255.03;4992094;28;19914;-79
2022/11/08 02:45:46;;;;;;;;;;;;;;;14.05;51.57;99251.56;4991988;28;19925;-78
2022/11/08 02:48:11;;;;;;;;;;;;;;;14.06;51.54;99255.03;4991928;28;19914;-78
2022/11/08 02:50:37;;;;;;;;;;;;;;;14.06;51.53;99257.66;4992419;28;19918;-78
2022/11/08 02:53:02;;;;;;;;;;;;;;;14.05;51.72;99253.38;4993492;28;20352;-78
2022/11/08 02:55:28;;;;;;;;;;;;;;;14.06;51.68;99252.41;4993451;28;19917;-79
2022/11/08 02:57:53;;;;;;;;;;;;;;;14.05;51.49;99250.75;4975870;28;19928;-78
2022/11/08 03:00:18;;;;;;;;;;;;;;;14.06;51.67;99255.03;4993245;28;20376;-78
2022/11/08 03:02:44;;;;;;;;;;;;;;;14.06;51.49;99252.41;4991996;28;19957;-78
2022/11/08 03:05:09;;;;;;;;;;;;;;;14.07;51.40;99259.31;4991879;28;19922;-78
2022/11/08 03:07:34;;;;;;;;;;;;;;;14.03;51.45;99252.66;4992247;28;19925;-77
2022/11/08 03:10:00;;;;;;;;;;;;;;;14.03;51.54;99258.75;4992163;28;20314;-77
2022/11/08 03:12:25;;;;;;;;;;;;;;;14.03;51.44;99263.19;4992203;28;19918;-77
2022/11/08 03:14:50;;;;;;;;;;;;;;;14.02;51.56;99256.25;4991759;28;19976;-77
2022/11/08 03:17:15;;;;;;;;;;;;;;;14.01;51.47;99257.19;4991803;28;20040;-78
2022/11/08 03:19:41;;;;;;;;;;;;;;;14.00;51.37;99258.19;4992801;28;19918;-77
2022/11/08 03:22:06;;;;;;;;;;;;;;;13.98;51.68;99260.06;4992019;28;20407;-77
2022/11/08 03:24:32;;;;;;;;;;;;;;;13.96;51.63;99257.56;4991697;28;19969;-77
2022/11/08 03:26:58;;;;;;;;;;;;;;;13.96;51.42;99262.00;4991989;28;19918;-78
2022/11/08 03:29:23;;;;;;;;;;;;;;;13.93;51.59;99258.69;4975420;28;19922;-77
2022/11/08 03:31:48;;;;;;;;;;;;;;;13.92;51.57;99264.06;4994511;28;19918;-77
2022/11/08 03:34:13;;;;;;;;;;;;;;;13.91;51.31;99263.19;4995531;28;20392;-77
2022/11/08 03:36:39;;;;;;;;;;;;;;;13.90;51.51;99264.16;4979075;28;19972;-78
2022/11/08 03:39:04;;;;;;;;;;;;;;;13.88;51.45;99267.88;4994822;28;19922;-78
2022/11/08 03:41:29;;;;;;;;;;;;;;;13.88;51.58;99262.63;4995267;28;19918;-78
2022/11/08 03:43:55;;;;;;;;;;;;;;;13.86;51.77;99261.91;4994756;28;19961;-78
2022/11/08 03:46:20;;;;;;;;;;;;;;;13.84;51.69;99263.84;4994953;28;19924;-78
2022/11/08 03:48:45;;;;;;;;;;;;;;;13.84;51.79;99266.47;4978783;28;19924;-77
2022/11/08 03:51:11;;;;;;;;;;;;;;;13.83;51.50;99264.78;4995427;28;19918;-77
2022/11/08 03:53:36;;;;;;;;;;;;;;;13.82;51.80;99266.59;4978880;28;20281;-78
2022/11/08 03:56:01;;;;;;;;;;;;;;;13.81;51.81;99266.72;4996619;28;19925;-79
2022/11/08 03:58:26;;;;;;;;;;;;;;;13.80;51.73;99265.03;4978639;28;19965;-77
2022/11/08 04:00:52;;;;;;;;;;;;;;;13.79;51.65;99264.22;4995402;28;19981;-78
2022/11/08 04:03:17;;;;;;;;;;;;;;;13.78;51.56;99270.41;4995904;28;19921;-79
2022/11/08 04:05:42;;;;;;;;;;;;;;;13.77;51.67;99263.50;4978647;28;20032;-76
2022/11/08 04:08:08;;;;;;;;;;;;;;;13.78;51.59;99269.59;4996001;28;20489;-80
2022/11/08 04:10:33;;;;;;;;;;;;;;;13.77;51.60;99271.34;4978531;28;19922;-78
2022/11/08 04:15:43;;;;;;;;;;;;;;;13.77;51.59;99276.59;4994801;28;20285;-77
2022/11/08 04:23:36;;;;;;;;;;;;;;;13.75;51.54;99268.03;4995221;28;20289;-78
2022/11/08 04:26:02;;;;;;;;;;;;;;;13.75;51.66;99268.03;4994017;28;19918;-77
2022/11/08 04:28:29;;;;;;;;;;;;;;;13.75;51.71;99273.28;4994925;28;19975;-77
2022/11/08 04:30:58;;;;;;;;;;;;;;;13.74;51.72;99274.22;4994160;28;19924;-77
2022/11/08 04:33:23;;;;;;;;;;;;;;;13.74;51.67;99275.09;4995730;28;20364;-83
2022/11/08 04:35:49;;;;;;;;;;;;;;;13.74;51.75;99276.84;4993733;28;19957;-70
2022/11/08 04:38:14;;;;;;;;;;;;;;;13.85;57.65;99276.84;4995061;28;20389;-70
2022/11/08 04:40:39;;;;;;;;;;;;;;;13.93;56.71;99289.31;4993705;28;19918;-70
2022/11/08 04:43:05;;;;;;;;;;;;;;;13.95;55.67;99284.78;4993399;28;19925;-69
2022/11/08 04:45:30;;;;;;;;;;;;;;;13.93;55.06;99279.66;4995148;28;20005;-69
2022/11/08 04:47:55;;;;;;;;;;;;;;;13.93;54.54;99284.06;4977784;28;20403;-69
2022/11/08 04:50:20;;;;;;;;;;;;;;;13.91;54.12;99293.88;4993719;28;19924;-69
2022/11/08 04:52:52;;;;;;;;;;;;;;;13.89;53.86;99296.63;4995205;28;19922;-69
2022/11/08 04:55:18;;;;;;;;;;;;;;;13.87;53.62;99289.84;4977349;28;19930;-71
2022/11/08 04:57:43;;;;;;;;;;;;;;;13.87;53.29;99289.84;4993705;28;19922;-71
2022/11/08 05:00:09;;;;;;;;;;;;;;;13.87;53.12;99289.84;4994687;28;19961;-71
2022/11/08 05:02:34;;;;;;;;;;;;;;;13.86;52.63;99294.22;4993094;28;19922;-75
2022/11/08 05:04:59;;;;;;;;;;;;;;;13.85;52.64;99291.72;4977253;28;19917;-75
2022/11/08 05:07:24;;;;;;;;;;;;;;;13.86;52.70;99301.28;4977241;28;20311;-74
2022/11/08 05:09:50;;;;;;;;;;;;;;;13.84;52.33;99296.16;4994019;28;19925;-74
2022/11/08 05:12:15;;;;;;;;;;;;;;;13.84;52.33;99301.41;4994251;28;19983;-74
2022/11/08 05:14:40;;;;;;;;;;;;;;;13.84;52.60;99295.34;4994652;28;19968;-75
2022/11/08 05:17:06;;;;;;;;;;;;;;;13.85;52.06;99295.22;4993408;28;19925;-75
2022/11/08 05:25:03;;;;;;;;;;;;;;;13.88;51.99;99301.97;4934761;29;19929;-74
2022/11/08 05:27:29;;;;;;;;;;;;;;;13.89;52.29;99301.03;4934653;29;19919;-74
2022/11/08 05:29:54;;;;;;;;;;;;;;;13.92;52.15;99303.41;4918470;29;19970;-75
2022/11/08 05:32:19;;;;;;;;;;;;;;;13.93;52.23;99303.28;4934249;29;20391;-74
2022/11/08 05:34:45;;;;;;;;;;;;;;;13.97;52.16;99303.03;4918318;29;19919;-75
2022/11/08 05:37:10;;;;;;;;;;;;;;;13.99;52.19;99307.19;4934461;29;19926;-75
2022/11/08 05:39:35;;;;;;;;;;;;;;;14.01;52.01;99307.06;4918148;29;20334;-75
2022/11/08 05:42:02;;;;;;;;;;;;;;;14.03;52.11;99308.63;4934259;29;20022;-75
2022/11/08 05:44:27;;;;;;;;;;;;;;;14.06;51.82;99315.41;4917973;29;19918;-74
2022/11/08 05:46:53;;;;;;;;;;;;;;;14.08;51.95;99319.56;4933499;29;19978;-74
2022/11/08 05:49:18;;;;;;;;;;;;;;;14.11;51.81;99321.94;4933830;29;19919;-75
2022/11/08 05:51:43;;;;;;;;;;;;;;;14.14;51.92;99325.28;4934379;29;19963;-74
2022/11/08 05:54:09;;;;;;;;;;;;;;;14.17;51.74;99325.03;4932949;29;20425;-74
2022/11/08 05:56:34;;;;;;;;;;;;;;;14.20;51.75;99333.50;4934044;29;19970;-74
2022/11/08 05:58:59;;;;;;;;;;;;;;;14.24;51.77;99341.94;4948851;28;19918;-75
2022/11/08 06:01:25;;;;;;;;;;;;;;;14.28;51.50;99348.63;4973465;28;20332;-75
2022/11/08 06:03:50;;;;;;;;;;;;;;;14.31;51.51;99348.38;4956690;28;19926;-75
2022/11/08 06:06:16;;;;;;;;;;;;;;;14.36;51.54;99356.72;4973001;28;19918;-76
2022/11/08 06:08:41;;;;;;;;;;;;;;;14.41;51.36;99365.03;4974334;28;19957;-76
2022/11/08 06:11:08;;;;;;;;;;;;;;;14.48;51.33;99358.34;4957203;28;20024;-75
2022/11/08 06:13:33;;;;;;;;;;;;;;;14.53;51.30;99355.31;4973015;28;19918;-75
2022/11/08 06:15:59;;;;;;;;;;;;;;;14.60;51.15;99366.19;4972732;28;20395;-75
2022/11/08 06:18:25;;;;;;;;;;;;;;;14.68;51.09;99368.19;4974517;28;19918;-74
2022/11/08 06:20:50;;;;;;;;;;;;;;;14.74;50.96;99367.66;4991385;28;20385;-75
2022/11/08 06:23:15;;;;;;;;;;;;;;;14.82;50.82;99367.84;5005311;28;19922;-76
2022/11/08 06:25:40;;;;;;;;;;;;;;;14.91;50.66;99374.97;5005254;28;19918;-74
2022/11/08 06:28:06;;;;;;;;;;;;;;;15.01;50.44;99373.22;5005414;28;19960;-74
2022/11/08 06:30:31;;;;;;;;;;;;;;;15.12;50.08;99371.50;5005694;28;19955;-74
2022/11/08 06:32:58;;;;;;;;;;;;;;;15.26;49.70;99371.13;4974084;28;20415;-75
2022/11/08 06:35:23;;;;;;;;;;;;;;;15.42;49.57;99372.44;5005258;28;19922;-75
2022/11/08 06:37:48;;;;;;;;;;;;;;;15.62;48.96;99374.16;5005601;28;20013;-74
2022/11/08 06:40:13;;;;;;;;;;;;;;;15.86;48.52;99379.13;4972407;28;20003;-74
2022/11/08 06:42:39;;;;;;;;;;;;;;;16.12;48.17;99381.25;5005180;28;19919;-75
2022/11/08 06:45:05;;;;;;;;;;;;;;;16.43;47.32;99378.47;5005069;28;19918;-75
2022/11/08 06:47:30;;;;;;;;;;;;;;;16.85;46.37;99374.69;4988887;28;19918;-73
2022/11/08 06:49:56;;;;;;;;;;;;;;;17.32;45.50;99372.09;4988734;28;20061;-74
2022/11/08 06:52:22;;;;;;;;;;;;;;;17.75;45.61;99375.91;5011324;28;19918;-77
2022/11/08 06:54:48;;;;;;;;;;;;;;;18.28;44.98;99369.09;4988156;28;20009;-75
2022/11/08 06:57:13;;;;;;;;;;;;;;;18.76;43.55;99364.34;5005210;28;19957;-74
2022/11/08 06:59:39;;;;;;;;;;;;;;;19.01;43.11;99373.31;4973973;28;19919;-74
2022/11/08 07:02:04;;;;;;;;;;;;;;;18.97;42.64;99370.13;4988844;28;20358;-75
2022/11/08 07:04:29;;;;;;;;;;;;;;;19.12;42.05;99369.56;4988272;28;20389;-74
2022/11/08 07:06:55;;;;;;;;;;;;;;;19.11;41.75;99365.25;5009105;28;20034;-75
2022/11/08 07:09:20;;;;;;;;;;;;;;;19.02;41.59;99367.00;5008991;28;20017;-75
2022/11/08 07:11:45;;;;;;;;;;;;;;;19.06;41.50;99375.47;5009092;28;20373;-75
2022/11/08 07:14:11;;;;;;;;;;;;;;;19.05;41.36;99374.63;4992162;28;19926;-73
2022/11/08 07:16:36;;;;;;;;;;;;;;;19.02;41.43;99371.47;4992221;28;20389;-74
2022/11/08 07:19:01;;;;;;;;;;;;;;;19.01;41.34;99372.44;5008742;28;19918;-74
2022/11/08 07:21:26;;;;;;;;;;;;;;;18.99;41.92;99367.31;5008431;28;19918;-72
2022/11/08 07:23:52;;;;;;;;;;;;;;;19.06;44.07;99373.66;4977486;28;20400;-74
2022/11/08 07:26:17;;;;;;;;;;;;;;;19.10;43.12;99376.81;4977153;28;19976;-74
2022/11/08 07:28:42;;;;;;;;;;;;;;;19.12;42.66;99374.88;4977137;28;20516;-75
2022/11/08 07:31:09;;;;;;;;;;;;;;;19.13;42.58;99377.34;4977153;28;19918;-76
2022/11/08 07:33:34;;;;;;;;;;;;;;;19.12;42.34;99374.88;5008397;28;19965;-76
2022/11/08 07:35:59;;;;;;;;;;;;;;;19.08;42.32;99381.44;4991825;28;20004;-74
2022/11/08 07:38:25;;;;;;;;;;;;;;;19.05;42.24;99379.09;5008503;28;19973;-76
2022/11/08 07:40:51;;;;;;;;;;;;;;;19.06;41.87;99375.47;4991865;28;19918;-74
2022/11/08 07:43:17;;;;;;;;;;;;;;;19.06;41.94;99376.31;5008306;28;20000;-74
2022/11/08 07:45:43;;;;;;;;;;;;;;;19.12;41.79;99378.31;4977023;28;19967;-75
2022/11/08 07:48:09;;;;;;;;;;;;;;;19.48;47.84;99378.19;4978923;28;19952;-76
2022/11/08 07:50:34;;;;;;;;;;;;;;;19.94;46.80;99371.72;4963379;28;20011;-78
2022/11/08 07:53:00;;;;;;;;;;;;;;;20.30;45.91;99377.59;4978905;28;20353;-76
2022/11/08 07:55:25;;;;;;;;;;;;;;;20.69;45.06;99384.13;4995857;28;19928;-75
2022/11/08 07:57:50;;;;;;;;;;;;;;;21.22;43.77;99380.06;4996215;28;19924;-76
2022/11/08 08:00:16;;;;;;;;;;;;;;;21.62;43.19;99377.47;4996218;28;19928;-78
2022/11/08 08:02:41;;;;;;;;;;;;;;;22.19;41.52;99377.13;4962217;28;20393;-81
2022/11/08 08:05:07;;;;;;;;;;;;;;;22.31;41.56;99384.72;4995111;28;20431;-74
2022/11/08 08:07:33;;;;;;;;;;;;;;;22.42;41.26;99378.16;4995831;28;19922;-71
2022/11/08 08:09:58;;;;;;;;;;;;;;;22.33;41.42;99382.69;4978390;28;19977;-71
2022/11/08 08:12:24;;;;;;;;;;;;;;;22.27;41.43;99378.91;4995903;28;19922;-71
2022/11/08 08:14:49;;;;;;;;;;;;;;;22.18;41.64;99371.97;4977976;28;19972;-70
2022/11/08 08:17:14;;;;;;;;;;;;;;;;;;4994588;28;19925;-72
2022/11/08 08:19:39;;;;;;;;;;;;;;;22.15;41.85;99369.69;4995914;28;19925;-71
2022/11/08 08:22:05;;;;;;;;;;;;;;;22.14;41.08;99374.19;4995503;28;19918;-74
2022/11/08 08:24:30;;;;;;;;;;;;;;;22.13;41.21;99374.34;4961861;28;20381;-84
2022/11/08 08:26:55;;;;;;;;;;;;;;;22.05;41.21;99375.22;4962143;28;19924;-80
2022/11/08 08:29:21;;;;;;;;;;;;;;;21.93;41.19;99376.63;4978626;28;19925;-78
2022/11/08 08:31:48;;;;;;;;;;;;;;;21.86;40.79;99379.16;4983488;28;19917;-82
2022/11/08 08:34:15;;;;;;;;;;;;;;;21.69;40.36;99375.75;4968547;28;19921;-83
2022/11/08 08:36:42;;;;;;;;;;;;;;;21.59;39.71;99377.81;4969208;28;19926;-81
2022/11/08 08:39:12;;;;;;;;;;;;;;;21.44;38.85;99377.66;4982831;28;19926;-80
2022/11/08 08:41:41;;;;;;;;;;;;;;;21.17;37.77;99385.03;4980028;28;20346;-79
2022/11/08 08:44:09;;;;;;;;;;;;;;;20.71;37.85;99388.25;4981845;28;19964;-79
2022/11/08 08:46:34;;;;;;;;;;;;;;;20.39;38.30;99387.22;4978472;28;19948;-76
2022/11/08 08:49:00;;;;;;;;;;;;;;;20.18;38.81;99384.22;4973877;28;19918;-73
2022/11/08 08:51:25;;;;;;;;;;;;;;;20.03;39.43;99389.31;4973123;28;19923;-74
2022/11/08 08:53:50;;;;;;;;;;;;;;;19.74;40.20;99385.22;4962461;28;20116;-74
2022/11/08 08:56:16;;;;;;;;;;;;;;;19.70;40.08;99394.47;4964321;28;20017;-72
2022/11/08 08:58:41;;;;;;;;;;;;;;;19.62;40.13;99384.69;4939761;29;20014;-74
2022/11/08 09:01:07;;;;;;;;;;;;;;;19.57;40.40;99383.50;4957137;29;19919;-77
2022/11/08 09:03:34;;;;;;;;;;;;;;;19.59;44.40;99386.81;4958801;28;19937;-76
2022/11/08 09:05:59;;;;;;;;;;;;;;;19.95;44.20;99397.25;4940534;29;19918;-77
2022/11/08 09:08:25;;;;;;;;;;;;;;;20.19;43.67;99393.81;4941088;29;20377;-78
2022/11/08 09:10:57;;;;;;;;;;;;;;;20.36;43.50;99390.19;4957189;29;20302;-87
2022/11/08 09:13:25;;;;;;;;;;;;;;;20.51;42.17;99389.53;4956706;29;19918;-88
2022/11/08 09:15:54;;;;;;;;;;;;;;;20.56;42.63;99395.19;4958855;29;19997;-79
2022/11/08 09:18:19;;;;;;;;;;;;;;;20.67;40.76;99392.25;4940040;29;19969;-84
2022/11/08 09:20:46;;;;;;;;;;;;;;;20.69;40.12;99394.72;4939229;29;19966;-83
2022/11/08 09:23:11;;;;;;;;;;;;;;;20.62;39.93;99391.88;4956064;28;19918;-81
2022/11/08 09:25:37;;;;;;;;;;;;;;;20.52;39.73;99396.50;4939083;29;19918;-79
2022/11/08 09:28:04;;;;;;;;;;;;;;;20.41;39.17;99395.00;4939171;29;19941;-80
2022/11/08 09:30:29;;;;;;;;;;;;;;;20.31;39.54;99389.88;4954761;29;19923;-76
2022/11/08 09:32:54;;;;;;;;;;;;;;;20.19;39.32;99392.00;4954280;28;19968;-76
2022/11/08 09:35:21;;;;;;;;;;;;;;;20.08;39.41;99391.47;4954479;28;20013;-75
2022/11/08 09:37:47;;;;;;;;;;;;;;;19.98;39.66;99387.16;4937579;29;19922;-76
2022/11/08 09:40:31;;;;;;;;;;;;;;;19.90;39.82;99389.78;4969156;28;19922;-76
2022/11/08 09:43:15;;;;;;;;;;;;;;;19.78;39.93;99385.75;4973657;28;19977;-75
2022/11/08 09:45:45;;;;;;;;;;;;;;;19.73;40.12;99386.22;4973282;28;20424;-77
2022/11/08 09:48:16;;;;;;;;;;;;;;;19.66;40.11;99380.72;4973735;28;19942;-77
2022/11/08 09:50:42;;;;;;;;;;;;;;;19.59;40.26;99379.69;4957414;28;19918;-77
2022/11/08 09:53:26;;;;;;;;;;;;;;;19.58;40.62;99379.88;4973793;28;19925;-77
2022/11/08 09:55:53;;;;;;;;;;;;;;;19.53;40.49;99377.72;4974677;28;20305;-76
2022/11/08 09:58:39;;;;;;;;;;;;;;;19.48;40.57;99379.97;4957424;28;19918;-76
2022/11/08 10:01:06;;;;;;;;;;;;;;;19.45;40.66;99375.00;4973547;28;19922;-74
2022/11/08 10:03:32;;;;;;;;;;;;;;;19.43;40.78;99369.88;4957013;28;19922;-76
2022/11/08 10:06:04;;;;;;;;;;;;;;;19.48;40.81;99372.03;4957107;28;19926;-76
2022/11/08 10:08:37;;;;;;;;;;;;;;;19.56;40.53;99372.09;4957262;28;20439;-76
2022/11/08 10:11:10;;;;;;;;;;;;;;;19.64;40.36;99372.13;4973833;28;20341;-77
2022/11/08 10:13:53;;;;;;;;;;;;;;;19.65;40.44;99376.41;4956965;28;20003;-76
2022/11/08 10:16:19;;;;;;;;;;;;;;;19.68;40.33;99367.34;4973205;28;19929;-78
2022/11/08 10:18:44;;;;;;;;;;;;;;;19.73;40.03;99364.19;4973022;28;19918;-75
2022/11/08 10:21:18;;;;;;;;;;;;;;;19.75;40.05;99362.22;4974529;28;19918;-76
2022/11/08 10:23:44;;;;;;;;;;;;;;;19.84;39.93;99356.81;4972968;28;19922;-75
2022/11/08 10:26:13;;;;;;;;;;;;;;;20.03;39.62;99360.16;4956861;28;20377;-77
2022/11/08 10:28:43;;;;;;;;;;;;;;;20.11;39.33;99354.88;4972963;28;19918;-77
2022/11/08 10:31:09;;;;;;;;;;;;;;;20.16;39.15;99355.22;4957096;28;19918;-77
2022/11/08 10:33:41;;;;;;;;;;;;;;;20.20;39.23;99355.72;4956741;28;19973;-76
2022/11/08 10:36:12;;;;;;;;;;;;;;;20.21;39.19;99349.44;4957149;28;19918;-78
2022/11/08 10:38:58;;;;;;;;;;;;;;;20.21;39.09;99355.56;4977359;28;20445;-78
2022/11/08 10:41:29;;;;;;;;;;;;;;;20.22;39.23;99351.06;4981527;28;20361;-81
2022/11/08 10:43:57;;;;;;;;;;;;;;;20.18;38.96;99347.94;5000651;28;20396;-83
2022/11/08 10:46:22;;;;;;;;;;;;;;;20.15;39.18;99342.16;4966781;28;20001;-81
2022/11/08 10:48:47;;;;;;;;;;;;;;;20.15;39.04;99344.78;4982943;28;20411;-81
2022/11/08 10:51:12;;;;;;;;;;;;;;;20.16;39.07;99341.13;4966540;28;19945;-81
2022/11/08 10:53:42;;;;;;;;;;;;;;;20.19;39.11;99340.81;4966390;28;20024;-82
2022/11/08 10:56:07;;;;;;;;;;;;;;;20.15;39.21;99335.00;4966524;28;19947;-82
2022/11/08 10:58:39;;;;;;;;;;;;;;;20.14;39.08;99337.81;4983349;28;19932;-82
2022/11/08 11:01:17;;;;;;;;;;;;;;;20.11;39.31;99330.19;4982602;28;20404;-82
2022/11/08 11:03:42;;;;;;;;;;;;;;;20.08;39.19;99336.66;4982430;28;19921;-79
2022/11/08 11:06:21;;;;;;;;;;;;;;;20.04;39.31;99330.84;4982537;28;19925;-79
2022/11/08 11:08:47;;;;;;;;;;;;;;;20.00;39.38;99331.34;4982736;28;19925;-80
2022/11/08 11:11:21;;;;;;;;;;;;;;;19.94;39.51;99330.19;4966815;28;19992;-80
2022/11/08 11:13:47;;;;;;;;;;;;;;;19.85;39.81;99321.38;4966638;28;19968;-80
2022/11/08 11:16:12;;;;;;;;;;;;;;;19.76;39.98;99316.22;4966236;28;20351;-80
2022/11/08 11:18:50;;;;;;;;;;;;;;;19.67;39.92;99318.84;4982790;28;20017;-78
2022/11/08 11:21:16;;;;;;;;;;;;;;;19.63;40.33;99314.03;4965915;28;19960;-83
2022/11/08 11:23:51;;;;;;;;;;;;;;;19.55;40.38;99314.81;4982266;28;20366;-81
2022/11/08 11:26:28;;;;;;;;;;;;;;;19.52;40.54;99308.03;4982996;28;19918;-80
2022/11/08 11:29:03;;;;;;;;;;;;;;;19.48;40.51;99312.00;4999826;28;19922;-80
2022/11/08 11:31:29;;;;;;;;;;;;;;;19.39;40.88;99312.09;4982993;28;20400;-80
2022/11/08 11:33:54;;;;;;;;;;;;;;;19.33;41.04;99306.47;4966234;28;19925;-82
2022/11/08 11:36:20;;;;;;;;;;;;;;;19.32;41.24;99306.63;4982425;28;20447;-81
2022/11/08 11:38:47;;;;;;;;;;;;;;;19.32;41.53;99303.97;4966005;28;20397;-80
2022/11/08 11:41:36;;;;;;;;;;;;;;;19.35;41.36;99303.66;4966522;28;19917;-81
2022/11/08 11:44:20;;;;;;;;;;;;;;;19.37;41.35;99307.00;4924686;29;19914;-83
2022/11/08 11:46:51;;;;;;;;;;;;;;;19.37;41.46;99298.22;4939966;29;19918;-80
2022/11/08 11:49:18;;;;;;;;;;;;;;;19.40;41.55;99300.53;4923799;29;19958;-81
2022/11/08 11:51:43;;;;;;;;;;;;;;;19.45;41.26;99300.88;4905455;29;20664;-80
2022/11/08 11:54:09;;;;;;;;;;;;;;;19.51;41.19;99301.09;4904686;29;19966;-79
2022/11/08 11:56:34;;;;;;;;;;;;;;;19.52;41.20;99296.59;4904925;29;19973;-81
2022/11/08 11:59:04;;;;;;;;;;;;;;;19.58;41.11;99303.09;4920637;29;19919;-84
2022/11/08 12:01:30;;;;;;;;;;;;;;;19.65;40.94;99307.56;4904837;29;19922;-82
2022/11/08 12:04:15;;;;;;;;;;;;;;;19.65;41.03;99306.72;4920532;29;19929;-83
2022/11/08 12:06:47;;;;;;;;;;;;;;;19.70;40.88;99307.94;4898502;29;19920;-86
2022/11/08 12:09:15;;;;;;;;;;;;;;;19.65;41.01;99304.91;4900167;29;19926;-82
2022/11/08 12:11:58;;;;;;;;;;;;;;;19.67;40.84;99305.59;4898947;29;20443;-81
2022/11/08 12:14:41;;;;;;;;;;;;;;;19.63;40.91;99303.44;4898644;29;20468;-82
2022/11/08 12:17:19;;;;;;;;;;;;;;;19.56;41.02;99299.75;4898784;29;19919;-81
2022/11/08 12:20:01;;;;;;;;;;;;;;;19.49;41.06;99296.94;4883175;29;19926;-82
2022/11/08 12:22:38;;;;;;;;;;;;;;;19.42;41.11;99285.31;4902077;29;19951;-82
2022/11/08 12:25:10;;;;;;;;;;;;;;;19.31;41.31;99289.09;4885670;29;19934;-81
2022/11/08 12:27:47;;;;;;;;;;;;;;;19.29;41.37;99285.75;4885503;29;19919;-83
2022/11/08 12:30:32;;;;;;;;;;;;;;;19.27;41.43;99278.00;4901410;29;19972;-82
2022/11/08 12:33:04;;;;;;;;;;;;;;;19.31;41.35;99278.53;4916752;29;19970;-83
2022/11/08 12:35:47;;;;;;;;;;;;;;;19.30;41.41;99282.97;4901241;29;20506;-81
2022/11/08 12:38:19;;;;;;;;;;;;;;;19.25;41.57;99281.81;4901172;29;19951;-82
2022/11/08 12:40:48;;;;;;;;;;;;;;;19.21;41.34;99285.75;4900728;29;19923;-82
2022/11/08 12:43:20;;;;;;;;;;;;;;;19.16;41.66;99276.47;4922423;28;19998;-82
2022/11/08 12:45:45;;;;;;;;;;;;;;;19.09;41.79;99275.44;4978432;28;19940;-80
2022/11/08 12:48:10;;;;;;;;;;;;;;;19.12;41.79;99276.94;4995806;28;19917;-83
2022/11/08 12:50:54;;;;;;;;;;;;;;;19.21;41.63;99277.81;4978907;28;19984;-84
2022/11/08 12:53:25;;;;;;;;;;;;;;;19.25;41.52;99285.25;4977860;28;20403;-81
2022/11/08 12:55:51;;;;;;;;;;;;;;;19.34;41.34;99280.84;4977929;28;20441;-81
2022/11/08 12:58:23;;;;;;;;;;;;;;;19.40;41.29;99287.31;4961692;28;19918;-80
2022/11/08 13:00:51;;;;;;;;;;;;;;;19.39;41.36;99286.47;4977533;28;19922;-82
2022/11/08 13:03:35;;;;;;;;;;;;;;;19.43;41.31;99279.03;4962067;28;19929;-82
2022/11/08 13:06:07;;;;;;;;;;;;;;;19.40;41.38;99287.31;4977725;28;19918;-82
2022/11/08 13:08:56;;;;;;;;;;;;;;;19.34;41.47;99289.59;4977765;28;20395;-81
2022/11/08 13:11:23;;;;;;;;;;;;;;;19.23;41.60;99291.69;4919816;29;19923;-82
2022/11/08 13:13:53;;;;;;;;;;;;;;;19.13;41.81;99292.66;4903297;29;19919;-82